Flight Sim Network - NZAA Airport Info

    NZAA (Auckland International Airport)  Login to use Map Selector
   

  RUNWAY INFORMATION    |    Airport Elevation : 23ft    |    LAT : -37.0080986023  /  LON : 174.792007446
Runway Number 05R / 23L Runway Width 148' Runway Length 11926'
Lighted Runway Yes Runway StatusOpen Runway Surface Concrete
Runway Number 05L / 23R Runway Width 148' Runway Length 10197'
Lighted Runway Yes Runway StatusOpen Runway Surface Concrete
  CLOSE ALTERNATE AIRPORTS
ICAODistanceAirport NameLongest RWRW SurfaceMAP
NZAR9NMArdmore Airport4688FTAsphalt
NZHB14NMHobsonville Aero4199FTDirt
NZWP15NMWhenuapai (Military)6665FTConcrete
NZNE22NMNorth Shore Aerodrome3088FTConcrete
NZGB56NMGreat Barrier Aerodrome3262FTDirt
NZHN58NMHamilton International Airport6430FTAsphalt
NZMA63NMMatamata Glider Airport3573FTDirt
NZWR77NMWhangarei Airport3599FTAsphalt
NZTG78NMTauranga Airport5988FTAsphalt
NZRO98NMRotorua Regional Airport5321FTAsphalt
  AIRPORT WEATHER
51°F | 11°C
Temperature
93%
Humidity
29" | 0mb
Pressure
6sm
Visibility
MVFR
Flight Rules
SCT @ 2100ft
Initial Clouds
FAIR
Conditions
Wind Info
7/23/24 17:00Z
Updated

NZAA 231700Z AUTO 25005KT 9999 SCT021/// BKN026/// BKN037/// 11/10 Q1013
  AIRPORT FREQUENCIES
NameFrequency
ATIS127.000
CLEARANCE128.200
GROUND121.900
TOWER118.700
APPROACH124.300
DEPARTURE129.600
IAA (RWY 5R)110.300
IMG (RWY 23L)109.900

Powered by Virtual Airlines Manager